Terminal Aerodrome Forecast
Issued by NWS Omaha/Valley, NE

Home | Current Version | Previous Version | Graphics & Text | Print | Product List | Glossary On
Versions: 1 2 3 4 5 6 7 8 9 10 11 12 13 14 15 16 17 18 19 20
000
FTUS43 KOAX 281239 AAA
TAFOFK
TAF AMD
KOFK 281239Z 2813/2912 07012KT 2SM RASN OVC025
     FM281400 06014KT 2SM RASN OVC008
     FM281700 04016G24KT 3SM RA OVC008
     FM282100 04016KT 5SM RA OVC015
     FM290000 02011KT P6SM OVC020
     FM290500 02010KT P6SM OVC035=

USA.gov is the U.S. government's official web portal to all federal, state and local government web resources and services.